createdAt,value
2022-10-26T00:01:16.219Z,99.90
2022-10-26T00:03:44.917Z,99.90
2022-10-26T00:06:17.160Z,99.90
2022-10-26T00:08:44.738Z,99.90
2022-10-26T00:11:12.518Z,99.90
2022-10-26T00:13:40.400Z,99.90
2022-10-26T00:16:12.629Z,99.90
2022-10-26T00:18:40.344Z,99.90
2022-10-26T00:21:08.329Z,99.90
2022-10-26T00:23:35.778Z,60.30
2022-10-26T00:26:03.138Z,1.00
2022-10-26T00:28:30.444Z,1.00
2022-10-26T00:31:06.198Z,1.00
2022-10-26T00:33:33.361Z,1.00
2022-10-26T00:36:00.369Z,1.00
2022-10-26T00:38:30.067Z,1.00
2022-10-26T00:43:27.709Z,1.00
2022-10-26T00:45:56.857Z,1.00
2022-10-26T00:48:33.260Z,1.00
2022-10-26T00:51:06.222Z,1.00
2022-10-26T00:53:33.600Z,1.00
2022-10-26T00:56:02.210Z,99.90
2022-10-26T00:58:29.451Z,99.90
2022-10-26T01:00:56.814Z,99.10
2022-10-26T01:03:28.018Z,1.00
2022-10-26T01:05:57.651Z,1.00
2022-10-26T01:08:26.297Z,1.00
2022-10-26T01:10:53.625Z,1.00
2022-10-26T01:13:21.222Z,1.00
2022-10-26T01:16:03.727Z,1.00
2022-10-26T01:18:41.499Z,1.00
2022-10-26T01:21:34.431Z,1.00
2022-10-26T01:24:10.449Z,1.00
2022-10-26T01:27:04.282Z,1.00
2022-10-26T01:30:09.523Z,1.00
2022-10-26T01:32:56.327Z,99.90
2022-10-26T01:35:35.959Z,99.90
2022-10-26T01:38:31.231Z,99.90
2022-10-26T01:41:07.083Z,99.90
2022-10-26T01:43:39.942Z,99.90
2022-10-26T01:46:09.753Z,96.80
2022-10-26T01:48:38.228Z,61.60
2022-10-26T01:51:07.416Z,1.00
2022-10-26T01:53:34.323Z,1.00
2022-10-26T01:56:02.418Z,1.00
2022-10-26T01:58:50.895Z,1.00
2022-10-26T02:01:52.117Z,1.00
2022-10-26T02:04:46.719Z,1.00
2022-10-26T02:07:39.192Z,1.00
2022-10-26T02:10:32.288Z,1.00
2022-10-26T02:13:16.056Z,1.00
2022-10-26T02:15:45.996Z,1.00
2022-10-26T02:18:57.820Z,1.00
2022-10-26T02:21:34.212Z,1.00
2022-10-26T02:24:01.910Z,1.00
2022-10-26T02:26:31.349Z,1.00
2022-10-26T02:29:01.938Z,1.00
2022-10-26T02:31:30.612Z,1.00
2022-10-26T02:34:02.158Z,1.00
2022-10-26T02:36:33.557Z,1.00
2022-10-26T02:39:03.337Z,1.00
2022-10-26T02:41:32.530Z,1.00
2022-10-26T02:44:27.503Z,1.00
2022-10-26T02:46:55.736Z,99.90
2022-10-26T02:49:23.010Z,99.90
2022-10-26T02:52:03.171Z,99.90
2022-10-26T02:54:36.821Z,99.90
2022-10-26T02:57:33.206Z,99.90
2022-10-26T03:00:01.021Z,99.90
2022-10-26T03:02:30.203Z,90.90
2022-10-26T03:05:06.467Z,92.60
2022-10-26T03:07:33.358Z,90.40
2022-10-26T03:10:00.260Z,87.40
2022-10-26T03:12:27.155Z,99.90
2022-10-26T03:14:54.036Z,46.90
2022-10-26T03:17:20.882Z,31.30
2022-10-26T03:19:47.841Z,38.60
2022-10-26T03:22:14.712Z,29.40
2022-10-26T03:24:41.623Z,11.60
2022-10-26T03:27:08.459Z,1.00
2022-10-26T03:29:35.340Z,1.00
2022-10-26T03:32:02.295Z,1.00
2022-10-26T03:34:29.227Z,1.00
2022-10-26T03:36:56.158Z,1.00
2022-10-26T03:39:23.083Z,1.00
2022-10-26T03:41:50.024Z,1.00
2022-10-26T03:44:16.976Z,1.00
2022-10-26T03:46:43.881Z,1.00
2022-10-26T03:49:10.727Z,1.00
2022-10-26T03:51:37.616Z,1.00
2022-10-26T03:54:05.431Z,1.00
2022-10-26T03:56:32.393Z,1.00
2022-10-26T03:58:59.361Z,1.00
2022-10-26T04:01:26.365Z,1.00
2022-10-26T04:03:53.357Z,1.00
2022-10-26T04:06:20.323Z,1.00
2022-10-26T04:08:47.204Z,1.00
2022-10-26T04:11:14.155Z,1.00
2022-10-26T04:13:41.073Z,1.00
2022-10-26T04:16:08.119Z,1.00
2022-10-26T04:18:35.130Z,1.00
2022-10-26T04:21:02.378Z,1.00
2022-10-26T04:23:29.311Z,1.00
2022-10-26T04:25:56.175Z,1.00
2022-10-26T04:28:23.086Z,1.00
2022-10-26T04:30:50.013Z,1.00
2022-10-26T04:33:16.850Z,1.00
2022-10-26T04:35:43.703Z,1.00
2022-10-26T04:38:10.680Z,1.00
2022-10-26T04:40:37.602Z,1.00
2022-10-26T04:43:04.721Z,1.00
2022-10-26T04:45:31.806Z,99.90
2022-10-26T04:48:01.625Z,99.90
2022-10-26T04:50:28.639Z,99.90
2022-10-26T04:52:55.653Z,99.90
2022-10-26T04:55:22.751Z,22.10
2022-10-26T04:57:49.848Z,61.80
2022-10-26T05:00:17.011Z,99.90
2022-10-26T05:02:43.967Z,99.90
2022-10-26T05:05:14.117Z,99.90
2022-10-26T05:07:42.063Z,54.20
2022-10-26T05:10:09.767Z,1.00
2022-10-26T05:12:36.644Z,1.00
2022-10-26T05:15:06.386Z,1.00
2022-10-26T05:17:35.393Z,1.00
2022-10-26T05:20:06.054Z,1.00
2022-10-26T05:22:32.933Z,1.00
2022-10-26T05:24:59.799Z,1.00
2022-10-26T05:27:26.730Z,1.00
2022-10-26T05:29:53.708Z,1.00
2022-10-26T05:32:20.693Z,1.00
2022-10-26T05:34:47.953Z,1.00
2022-10-26T05:37:14.853Z,1.00
2022-10-26T05:39:43.471Z,1.00
2022-10-26T05:42:10.350Z,7.70
2022-10-26T05:44:37.258Z,99.90
2022-10-26T05:47:04.267Z,99.90
2022-10-26T05:49:31.116Z,99.90
2022-10-26T05:51:58.026Z,99.90
2022-10-26T05:54:25.019Z,99.90
2022-10-26T05:56:52.222Z,99.90
2022-10-26T05:59:19.310Z,99.90
2022-10-26T06:02:18.247Z,99.90
2022-10-26T06:04:49.680Z,99.90
2022-10-26T06:07:20.939Z,99.90
2022-10-26T06:09:48.626Z,99.90
2022-10-26T06:12:19.273Z,99.90
2022-10-26T06:14:47.315Z,99.90
2022-10-26T06:17:32.747Z,99.90
2022-10-26T06:20:18.127Z,99.90
2022-10-26T06:22:59.361Z,99.90
2022-10-26T06:25:35.246Z,99.90
2022-10-26T06:28:24.029Z,99.90
2022-10-26T06:30:51.893Z,99.90
2022-10-26T06:33:28.976Z,99.90
2022-10-26T06:36:13.517Z,99.90
2022-10-26T06:38:44.494Z,99.90
2022-10-26T06:41:15.533Z,99.90
2022-10-26T06:43:42.743Z,99.90
2022-10-26T06:46:33.995Z,99.90
2022-10-26T06:49:03.663Z,95.80
2022-10-26T06:51:31.960Z,1.00
2022-10-26T06:54:24.238Z,1.00
2022-10-26T06:56:52.776Z,1.00
2022-10-26T06:59:36.818Z,1.00
2022-10-26T07:02:06.412Z,1.00
2022-10-26T07:04:33.897Z,1.00
2022-10-26T07:07:00.828Z,99.90
2022-10-26T07:09:27.723Z,99.90
2022-10-26T07:11:54.705Z,99.90
2022-10-26T07:14:21.620Z,99.90
2022-10-26T07:16:48.526Z,99.90
2022-10-26T07:19:15.528Z,99.90
2022-10-26T07:21:42.485Z,40.10
2022-10-26T07:24:09.543Z,1.00
2022-10-26T07:26:36.551Z,1.00
2022-10-26T07:29:03.640Z,1.00
2022-10-26T07:31:30.602Z,1.00
2022-10-26T07:33:57.714Z,1.00
2022-10-26T07:36:24.716Z,1.00
2022-10-26T07:38:53.386Z,1.00
2022-10-26T07:41:20.682Z,1.00
2022-10-26T07:43:49.119Z,1.00
2022-10-26T07:46:16.351Z,99.90
2022-10-26T07:51:11.271Z,99.90
2022-10-26T07:53:38.188Z,1.00
2022-10-26T07:56:05.402Z,1.00
2022-10-26T07:58:32.539Z,1.00
2022-10-26T08:01:09.662Z,1.00
2022-10-26T08:03:36.884Z,1.00
2022-10-26T08:06:05.176Z,1.00
2022-10-26T08:08:32.492Z,1.00
2022-10-26T08:11:00.228Z,1.00
2022-10-26T08:13:27.189Z,1.00
2022-10-26T08:15:58.716Z,1.00
2022-10-26T08:18:26.071Z,1.00
2022-10-26T08:20:56.371Z,1.00
2022-10-26T08:23:28.961Z,99.90
2022-10-26T08:26:00.184Z,99.90
2022-10-26T08:28:27.964Z,99.90
2022-10-26T08:30:55.636Z,99.90
2022-10-26T08:33:26.009Z,81.80
2022-10-26T08:36:02.049Z,35.60
2022-10-26T08:38:29.699Z,28.00
2022-10-26T08:40:58.141Z,69.80
2022-10-26T08:43:41.978Z,67.00
2022-10-26T08:46:14.464Z,90.20
2022-10-26T08:48:47.521Z,67.80
2022-10-26T08:51:14.388Z,13.30
2022-10-26T08:53:54.427Z,1.00
2022-10-26T08:56:26.983Z,1.00
2022-10-26T08:59:20.526Z,1.00
2022-10-26T09:01:47.474Z,1.00
2022-10-26T09:04:14.327Z,1.00
2022-10-26T09:06:57.951Z,1.00
2022-10-26T09:09:46.665Z,1.00
2022-10-26T09:12:34.588Z,1.00
2022-10-26T09:15:16.716Z,1.00
2022-10-26T09:18:08.724Z,1.00
2022-10-26T09:21:11.995Z,1.00
2022-10-26T09:23:57.498Z,1.00
2022-10-26T09:26:39.548Z,1.00
2022-10-26T09:29:13.141Z,1.00
2022-10-26T09:31:47.125Z,1.00
2022-10-26T09:34:25.391Z,1.00
2022-10-26T09:36:55.783Z,1.00
2022-10-26T09:39:32.664Z,1.00
2022-10-26T09:42:12.745Z,1.00
2022-10-26T09:44:55.091Z,1.00
2022-10-26T09:47:56.467Z,1.00
2022-10-26T09:50:35.973Z,1.00
2022-10-26T09:53:03.976Z,1.00
2022-10-26T09:55:33.051Z,1.00
2022-10-26T09:58:06.193Z,1.00
2022-10-26T10:03:02.544Z,1.00
2022-10-26T10:08:26.243Z,1.00
2022-10-26T10:11:06.853Z,1.00
2022-10-26T10:13:37.236Z,1.00
2022-10-26T10:16:08.556Z,1.00
2022-10-26T10:18:36.559Z,1.00
2022-10-26T10:21:05.741Z,1.00
2022-10-26T10:23:35.334Z,1.00
2022-10-26T10:26:13.730Z,1.00
2022-10-26T10:28:42.764Z,1.00
2022-10-26T10:31:27.620Z,1.00
2022-10-26T10:33:55.363Z,1.00
2022-10-26T10:36:24.558Z,1.00
2022-10-26T10:38:53.437Z,1.00
2022-10-26T10:41:37.679Z,1.00
2022-10-26T10:44:22.721Z,1.00
2022-10-26T10:46:49.738Z,1.00
2022-10-26T10:49:29.143Z,1.00
2022-10-26T10:51:57.004Z,1.00
2022-10-26T10:54:34.434Z,1.00
2022-10-26T10:57:23.236Z,1.00
2022-10-26T11:00:03.978Z,1.00
2022-10-26T11:03:01.853Z,1.00
2022-10-26T11:05:31.824Z,1.00
2022-10-26T11:08:09.086Z,1.00
2022-10-26T11:10:47.036Z,1.00
2022-10-26T11:13:25.855Z,1.00
2022-10-26T11:15:59.507Z,1.00
2022-10-26T11:18:37.323Z,1.00
2022-10-26T11:21:28.859Z,1.00
2022-10-26T11:24:01.842Z,1.00
2022-10-26T11:26:35.558Z,1.00
2022-10-26T11:29:10.898Z,1.00
2022-10-26T11:31:51.192Z,1.00
2022-10-26T11:34:27.312Z,1.00
2022-10-26T11:37:02.239Z,1.00
2022-10-26T11:39:58.883Z,1.00
2022-10-26T11:42:37.648Z,1.00
2022-10-26T11:45:19.900Z,1.00
2022-10-26T11:48:14.728Z,1.00
2022-10-26T11:50:54.356Z,1.00
2022-10-26T11:53:38.843Z,1.00
2022-10-26T11:56:14.012Z,1.00
2022-10-26T11:58:42.098Z,1.00
2022-10-26T12:01:12.160Z,1.00
2022-10-26T12:03:48.323Z,1.00
2022-10-26T12:06:21.090Z,1.00
2022-10-26T12:08:53.748Z,1.00
2022-10-26T12:11:42.230Z,1.00
2022-10-26T12:14:40.645Z,1.00
2022-10-26T12:17:16.558Z,1.00
2022-10-26T12:19:46.301Z,1.00
2022-10-26T12:22:16.394Z,1.00
2022-10-26T12:25:04.688Z,1.00
2022-10-26T12:27:31.596Z,1.00
2022-10-26T12:30:17.333Z,1.00
2022-10-26T12:32:44.217Z,1.00
2022-10-26T12:35:40.054Z,1.00
2022-10-26T12:38:27.952Z,1.00
2022-10-26T12:41:09.986Z,1.00
2022-10-26T12:43:39.397Z,1.00
2022-10-26T12:46:12.625Z,1.00
2022-10-26T12:48:48.380Z,1.00
2022-10-26T12:51:21.688Z,1.00
2022-10-26T12:54:04.066Z,1.00
2022-10-26T12:56:55.320Z,1.00
2022-10-26T12:59:50.169Z,1.00
2022-10-26T13:02:58.453Z,1.00
2022-10-26T13:05:33.795Z,1.00
2022-10-26T13:08:07.702Z,1.00
2022-10-26T13:10:36.402Z,1.00
2022-10-26T13:13:06.331Z,1.00
2022-10-26T13:15:52.223Z,1.00
2022-10-26T13:18:21.014Z,1.00
2022-10-26T13:21:15.094Z,1.00
2022-10-26T13:23:48.060Z,1.00
2022-10-26T13:26:17.572Z,1.00
2022-10-26T13:28:54.672Z,1.00
2022-10-26T13:31:34.344Z,1.00
2022-10-26T13:34:03.754Z,1.00
2022-10-26T13:36:39.123Z,1.00
2022-10-26T13:39:28.835Z,1.00
2022-10-26T13:41:58.493Z,1.00
2022-10-26T13:44:40.402Z,1.00
2022-10-26T13:47:39.357Z,1.00
2022-10-26T13:50:11.520Z,1.00
2022-10-26T13:52:45.202Z,1.00
2022-10-26T13:55:39.968Z,1.00
2022-10-26T13:58:14.695Z,1.00
2022-10-26T14:01:00.988Z,1.00
2022-10-26T14:03:28.290Z,1.00
2022-10-26T14:05:56.063Z,1.00
2022-10-26T14:08:23.827Z,1.00
2022-10-26T14:10:57.170Z,1.00
2022-10-26T14:13:26.614Z,1.00
2022-10-26T14:15:56.499Z,1.00
2022-10-26T14:18:30.516Z,1.00
2022-10-26T14:21:00.112Z,1.00
2022-10-26T14:23:45.117Z,1.00
2022-10-26T14:26:37.808Z,1.00
2022-10-26T14:29:14.397Z,1.00
2022-10-26T14:31:41.256Z,1.00
2022-10-26T14:34:12.308Z,1.00
2022-10-26T14:36:41.700Z,1.00
2022-10-26T14:39:20.889Z,1.00
2022-10-26T14:41:49.469Z,1.00
2022-10-26T14:44:20.373Z,1.00
2022-10-26T14:46:47.992Z,1.00
2022-10-26T14:49:25.683Z,1.00
2022-10-26T14:52:04.147Z,1.00
2022-10-26T14:54:32.234Z,1.00
2022-10-26T14:57:02.550Z,1.00
2022-10-26T14:59:31.447Z,1.00
2022-10-26T15:02:13.577Z,1.00
2022-10-26T15:04:42.158Z,1.00
2022-10-26T15:07:13.264Z,1.00
2022-10-26T15:09:44.048Z,1.00
2022-10-26T15:12:22.521Z,1.00
2022-10-26T15:14:51.079Z,1.00
2022-10-26T15:17:24.035Z,1.00
2022-10-26T15:19:52.431Z,1.00
2022-10-26T15:22:31.813Z,1.00
2022-10-26T15:25:05.705Z,1.00
2022-10-26T15:27:32.893Z,1.00
2022-10-26T15:30:22.503Z,1.00
2022-10-26T15:32:50.215Z,1.00
2022-10-26T15:35:25.415Z,1.00
2022-10-26T15:37:53.769Z,1.00
2022-10-26T15:40:22.796Z,1.00
2022-10-26T15:42:52.987Z,1.00
2022-10-26T15:45:25.703Z,1.00
2022-10-26T15:47:55.519Z,1.00
2022-10-26T15:50:28.390Z,1.00
2022-10-26T15:53:01.600Z,1.00
2022-10-26T15:55:30.319Z,1.00
2022-10-26T15:57:57.382Z,1.00
2022-10-26T16:00:24.353Z,1.00
2022-10-26T16:02:51.273Z,1.00
2022-10-26T16:05:18.459Z,1.00
2022-10-26T16:07:47.743Z,1.00
2022-10-26T16:10:20.382Z,1.00
2022-10-26T16:12:47.384Z,1.00
2022-10-26T16:15:23.050Z,1.00
2022-10-26T16:17:50.763Z,1.00
2022-10-26T16:20:24.644Z,1.00
2022-10-26T16:22:52.879Z,1.00
2022-10-26T16:25:25.062Z,1.00
2022-10-26T16:27:53.773Z,1.00
2022-10-26T16:30:24.714Z,1.00
2022-10-26T16:32:54.075Z,1.00
2022-10-26T16:35:21.092Z,1.00
2022-10-26T16:37:47.903Z,1.00
2022-10-26T16:40:14.858Z,1.00
2022-10-26T16:42:43.986Z,1.00
2022-10-26T16:45:12.456Z,1.00
2022-10-26T16:47:40.183Z,1.00
2022-10-26T16:50:12.735Z,1.00
2022-10-26T16:52:40.331Z,1.00
2022-10-26T16:55:08.291Z,1.00
2022-10-26T16:57:36.208Z,29.80
2022-10-26T17:00:05.254Z,49.20
2022-10-26T17:02:32.247Z,99.90
2022-10-26T17:05:01.363Z,99.90
2022-10-26T17:07:31.366Z,99.90
2022-10-26T17:09:58.313Z,99.90
2022-10-26T17:14:58.910Z,99.90
2022-10-26T17:17:26.090Z,99.90
2022-10-26T17:19:53.033Z,99.90
2022-10-26T17:22:20.034Z,99.90
2022-10-26T17:24:46.976Z,99.90
2022-10-26T17:27:13.881Z,99.90
2022-10-26T17:29:40.769Z,99.90
2022-10-26T17:32:07.640Z,1.00
2022-10-26T17:34:34.624Z,1.00
2022-10-26T17:37:01.634Z,1.00
2022-10-26T17:39:29.421Z,1.00
2022-10-26T17:41:56.513Z,1.00
2022-10-26T17:44:24.043Z,1.00
2022-10-26T17:46:51.039Z,1.00
2022-10-26T17:49:18.066Z,1.00
2022-10-26T17:51:45.152Z,1.00
2022-10-26T17:54:12.101Z,1.00
2022-10-26T17:56:39.339Z,1.00
2022-10-26T17:59:11.631Z,1.00
2022-10-26T18:01:39.013Z,1.00
2022-10-26T18:04:09.133Z,1.00
2022-10-26T18:06:36.084Z,1.00
2022-10-26T18:09:03.076Z,1.00
2022-10-26T18:14:02.186Z,1.00
2022-10-26T18:16:30.461Z,1.00
2022-10-26T18:19:00.636Z,1.00
2022-10-26T18:21:29.620Z,99.90
2022-10-26T18:23:56.819Z,99.90
2022-10-26T18:26:26.560Z,99.90
2022-10-26T18:28:55.222Z,99.90
2022-10-26T18:31:23.755Z,99.90
2022-10-26T18:33:55.833Z,99.90
2022-10-26T18:36:22.789Z,99.90
2022-10-26T18:38:49.812Z,99.90
2022-10-26T18:41:18.769Z,93.60
2022-10-26T18:43:50.565Z,90.60
2022-10-26T18:46:24.109Z,83.50
2022-10-26T18:48:58.048Z,91.50
2022-10-26T18:51:29.070Z,85.80
2022-10-26T18:53:56.847Z,97.40
2022-10-26T18:56:25.015Z,82.40
2022-10-26T18:59:01.371Z,76.30
2022-10-26T19:01:42.280Z,60.20
2022-10-26T19:04:11.243Z,82.50
2022-10-26T19:06:40.864Z,87.80
2022-10-26T19:09:10.088Z,94.10
2022-10-26T19:11:37.917Z,99.90
2022-10-26T19:14:05.318Z,99.90
2022-10-26T19:16:48.548Z,99.90
2022-10-26T19:19:17.019Z,99.90
2022-10-26T19:21:48.896Z,99.90
2022-10-26T19:24:18.907Z,99.90
2022-10-26T19:26:46.837Z,99.90
2022-10-26T19:29:16.393Z,99.90
2022-10-26T19:31:45.114Z,99.90
2022-10-26T19:34:15.394Z,99.90
2022-10-26T19:36:45.171Z,99.90
2022-10-26T19:39:15.112Z,99.90
2022-10-26T19:41:42.536Z,99.90
2022-10-26T19:44:13.671Z,99.90
2022-10-26T19:46:40.698Z,99.90
2022-10-26T19:49:23.487Z,99.90
2022-10-26T19:51:54.194Z,99.90
2022-10-26T19:54:21.214Z,99.90
2022-10-26T19:56:48.200Z,99.90
2022-10-26T19:59:15.264Z,99.90
2022-10-26T20:01:42.232Z,99.90
2022-10-26T20:04:09.195Z,99.90
2022-10-26T20:06:36.086Z,99.90
2022-10-26T20:09:03.588Z,1.00
2022-10-26T20:11:32.317Z,1.00
2022-10-26T20:13:59.638Z,1.00
2022-10-26T20:16:26.737Z,1.00
2022-10-26T20:18:53.837Z,1.00
2022-10-26T20:21:20.959Z,1.00
2022-10-26T20:23:47.925Z,1.00
2022-10-26T20:26:18.747Z,1.00
2022-10-26T20:28:48.806Z,1.00
2022-10-26T20:31:16.258Z,1.00
2022-10-26T20:33:43.804Z,1.00
2022-10-26T20:36:11.269Z,1.00
2022-10-26T20:38:39.929Z,1.00
2022-10-26T20:41:11.656Z,1.00
2022-10-26T20:43:42.749Z,1.00
2022-10-26T20:46:23.364Z,1.00
2022-10-26T20:48:51.598Z,1.00
2022-10-26T20:51:26.351Z,1.00
2022-10-26T20:54:14.031Z,1.00
2022-10-26T20:56:42.128Z,1.00
2022-10-26T20:59:43.138Z,1.00
2022-10-26T21:02:10.583Z,1.00
2022-10-26T21:04:38.884Z,1.00
2022-10-26T21:07:06.019Z,85.60
2022-10-26T21:09:36.533Z,93.10
2022-10-26T21:12:04.474Z,33.80
2022-10-26T21:14:35.797Z,8.40
2022-10-26T21:17:02.845Z,17.30
2022-10-26T21:19:29.812Z,1.00
2022-10-26T21:21:56.824Z,1.00
2022-10-26T21:24:23.862Z,1.00
2022-10-26T21:26:51.346Z,1.00
2022-10-26T21:29:18.760Z,1.00
2022-10-26T21:31:45.636Z,1.00
2022-10-26T21:34:12.614Z,91.70
2022-10-26T21:36:39.499Z,99.90
2022-10-26T21:39:06.490Z,99.90
2022-10-26T21:41:37.356Z,99.90
2022-10-26T21:44:09.919Z,99.90
2022-10-26T21:46:49.252Z,98.50
2022-10-26T21:49:16.178Z,99.90
2022-10-26T21:51:43.432Z,99.90
2022-10-26T21:54:10.590Z,99.90
2022-10-26T21:56:37.674Z,99.90
2022-10-26T21:59:05.885Z,99.90
2022-10-26T22:01:33.129Z,99.90
2022-10-26T22:04:00.166Z,1.00
2022-10-26T22:06:27.081Z,1.00
2022-10-26T22:08:54.228Z,99.90
2022-10-26T22:11:23.460Z,99.90
2022-10-26T22:13:52.021Z,99.90
2022-10-26T22:16:23.176Z,1.00
2022-10-26T22:18:52.112Z,1.00
2022-10-26T22:21:20.375Z,1.00
2022-10-26T22:23:48.051Z,1.00
2022-10-26T22:26:20.280Z,1.00
2022-10-26T22:28:49.834Z,1.00
2022-10-26T22:34:13.093Z,99.90
2022-10-26T22:36:40.109Z,99.90
2022-10-26T22:39:07.015Z,99.90
2022-10-26T22:41:34.052Z,99.90
2022-10-26T22:44:00.987Z,99.90
2022-10-26T22:46:29.053Z,1.00
2022-10-26T22:48:56.720Z,1.00
2022-10-26T22:51:25.440Z,1.00
2022-10-26T22:53:56.847Z,99.90
2022-10-26T22:58:52.478Z,1.00
2022-10-26T23:01:28.461Z,99.90
2022-10-26T23:03:58.110Z,99.90
2022-10-26T23:06:27.212Z,1.00
2022-10-26T23:08:54.111Z,1.00
2022-10-26T23:11:23.307Z,1.00
2022-10-26T23:14:01.241Z,1.00
2022-10-26T23:16:29.228Z,1.00
2022-10-26T23:18:56.348Z,1.00
2022-10-26T23:23:52.175Z,1.00
2022-10-26T23:26:21.452Z,1.00
2022-10-26T23:28:49.439Z,1.00
2022-10-26T23:31:22.060Z,1.00
2022-10-26T23:33:53.071Z,1.00
2022-10-26T23:36:20.271Z,1.00
2022-10-26T23:38:48.010Z,1.00
2022-10-26T23:41:15.148Z,1.00
2022-10-26T23:43:42.225Z,90.50
2022-10-26T23:46:09.322Z,99.90
2022-10-26T23:48:36.780Z,91.90
2022-10-26T23:51:03.970Z,61.90
2022-10-26T23:53:30.907Z,1.00
2022-10-26T23:55:57.759Z,1.00
2022-10-26T23:58:24.659Z,1.00
